createdAt,value
2023-03-28T00:01:56.291Z,98757.22
2023-03-28T00:06:00.871Z,98763.19
2023-03-28T00:10:03.879Z,98760.59
2023-03-28T00:14:08.314Z,98766.63
2023-03-28T00:18:13.192Z,98773.50
2023-03-28T00:22:15.997Z,98783.06
2023-03-28T00:26:19.221Z,98785.72
2023-03-28T00:30:21.313Z,98790.13
2023-03-28T00:34:24.163Z,98801.41
2023-03-28T00:38:27.531Z,98804.03
2023-03-28T00:42:30.662Z,98800.66
2023-03-28T00:46:39.664Z,98798.13
2023-03-28T00:50:46.934Z,98801.56
2023-03-28T00:54:49.187Z,98800.75
2023-03-28T00:58:53.121Z,98800.72
2023-03-28T01:02:57.269Z,98803.25
2023-03-28T01:06:59.541Z,98802.31
2023-03-28T01:11:02.297Z,98806.56
2023-03-28T01:15:04.883Z,98805.66
2023-03-28T01:19:42.942Z,98805.63
2023-03-28T01:23:48.101Z,98811.69
2023-03-28T01:28:26.638Z,98810.88
2023-03-28T01:33:14.620Z,98816.03
2023-03-28T01:37:32.554Z,98816.06
2023-03-28T01:41:55.315Z,98813.41
2023-03-28T01:46:07.159Z,98812.47
2023-03-28T01:50:39.438Z,98817.56
2023-03-28T01:54:44.910Z,98820.09
2023-03-28T01:58:54.267Z,98821.81
2023-03-28T02:03:22.764Z,98824.44
2023-03-28T02:07:28.909Z,98827.06
2023-03-28T02:11:43.601Z,98829.59
2023-03-28T02:15:59.358Z,98822.66
2023-03-28T02:20:16.019Z,98830.38
2023-03-28T02:24:33.112Z,98825.13
2023-03-28T02:28:57.091Z,98823.31
2023-03-28T02:33:10.462Z,98820.66
2023-03-28T02:37:28.028Z,98819.72
2023-03-28T02:41:56.920Z,98824.84
2023-03-28T02:46:05.246Z,98817.13
2023-03-28T02:50:22.190Z,98813.66
2023-03-28T02:54:31.831Z,98817.03
2023-03-28T02:59:13.392Z,98812.66
2023-03-28T03:03:16.846Z,98806.56
2023-03-28T03:07:19.404Z,98811.66
2023-03-28T03:11:21.447Z,98817.66
2023-03-28T03:15:23.437Z,98812.50
2023-03-28T03:19:30.322Z,98820.16
2023-03-28T03:23:32.557Z,98821.00
2023-03-28T03:27:37.021Z,98814.94
2023-03-28T03:31:43.199Z,98811.47
2023-03-28T03:36:09.999Z,98811.47
2023-03-28T03:40:12.830Z,98812.38
2023-03-28T03:44:16.757Z,98823.53
2023-03-28T03:48:18.907Z,98820.94
2023-03-28T03:52:21.010Z,98825.22
2023-03-28T03:56:23.898Z,98821.69
2023-03-28T04:00:31.749Z,98823.38
2023-03-28T04:04:33.803Z,98829.38
2023-03-28T04:08:46.492Z,98836.22
2023-03-28T04:12:56.218Z,98835.38
2023-03-28T04:16:58.317Z,98835.31
2023-03-28T04:21:03.744Z,98851.63
2023-03-28T04:25:17.735Z,98854.19
2023-03-28T04:29:25.000Z,98861.09
2023-03-28T04:33:46.315Z,98863.94
2023-03-28T04:37:50.881Z,98867.59
2023-03-28T04:41:55.603Z,98879.75
2023-03-28T04:46:04.919Z,98872.94
2023-03-28T04:50:11.017Z,98879.09
2023-03-28T04:54:13.141Z,98880.00
2023-03-28T04:58:23.138Z,98880.00
2023-03-28T05:02:26.140Z,98881.72
2023-03-28T05:06:40.021Z,98890.38
2023-03-28T05:10:44.000Z,98887.78
2023-03-28T05:14:46.505Z,98895.53
2023-03-28T05:18:51.362Z,98892.06
2023-03-28T05:22:58.906Z,98898.19
2023-03-28T05:27:01.262Z,98899.19
2023-03-28T05:31:03.546Z,98907.88
2023-03-28T05:35:08.933Z,98916.59
2023-03-28T05:39:11.754Z,98921.03
2023-03-28T05:43:14.955Z,98913.41
2023-03-28T05:47:17.216Z,98923.78
2023-03-28T05:51:19.250Z,98923.88
2023-03-28T05:55:22.270Z,98927.41
2023-03-28T05:59:24.937Z,98927.44
2023-03-28T06:03:28.093Z,98936.91
2023-03-28T06:07:41.535Z,98933.44
2023-03-28T06:11:46.420Z,98942.13
2023-03-28T06:15:48.393Z,98940.44
2023-03-28T06:19:51.808Z,98944.81
2023-03-28T06:23:54.866Z,98936.25
2023-03-28T06:28:01.975Z,98939.75
2023-03-28T06:32:05.699Z,98948.34
2023-03-28T06:36:08.901Z,98945.72
2023-03-28T06:40:11.548Z,98944.97
2023-03-28T06:44:14.122Z,98947.66
2023-03-28T06:48:41.684Z,98955.56
2023-03-28T06:52:52.825Z,98959.03
2023-03-28T06:56:54.990Z,98954.75
2023-03-28T07:01:00.483Z,98951.34
2023-03-28T07:05:08.543Z,98953.94
2023-03-28T07:09:10.953Z,98959.13
2023-03-28T07:13:22.488Z,98962.53
2023-03-28T07:17:32.828Z,98964.28
2023-03-28T07:21:34.888Z,98965.16
2023-03-28T07:25:39.025Z,98957.41
2023-03-28T07:29:41.132Z,98968.66
2023-03-28T07:33:43.256Z,98975.53
2023-03-28T07:37:47.295Z,98982.41
2023-03-28T07:42:12.024Z,98991.97
2023-03-28T07:46:16.040Z,98987.66
2023-03-28T07:50:19.049Z,98987.66
2023-03-28T07:54:21.674Z,98985.97
2023-03-28T07:58:24.281Z,98985.09
2023-03-28T08:02:26.946Z,98998.06
2023-03-28T08:06:32.447Z,99004.97
2023-03-28T08:10:36.894Z,99008.34
2023-03-28T08:14:39.364Z,99010.97
2023-03-28T08:18:41.453Z,99013.59
2023-03-28T08:22:43.486Z,99017.88
2023-03-28T08:27:11.590Z,99019.50
2023-03-28T08:31:16.283Z,99018.47
2023-03-28T08:35:24.693Z,99023.59
2023-03-28T08:39:30.346Z,99027.88
2023-03-28T08:43:50.828Z,99023.28
2023-03-28T08:48:07.434Z,99026.72
2023-03-28T08:52:16.092Z,99017.31
2023-03-28T08:56:18.456Z,99017.22
2023-03-28T09:00:27.555Z,99012.88
2023-03-28T09:04:35.523Z,99011.22
2023-03-28T09:09:04.602Z,99015.34
2023-03-28T09:13:19.408Z,99012.81
2023-03-28T09:17:43.561Z,99022.31
2023-03-28T09:22:15.849Z,99013.56
2023-03-28T09:26:34.693Z,99010.09
2023-03-28T09:30:46.983Z,99000.63
2023-03-28T09:34:51.139Z,99001.59
2023-03-28T09:39:06.188Z,98996.31
2023-03-28T09:43:16.872Z,98996.09
2023-03-28T09:47:30.394Z,98995.88
2023-03-28T09:51:38.335Z,98991.44
2023-03-28T09:55:40.886Z,98986.13
2023-03-28T09:59:43.146Z,98980.06
2023-03-28T10:03:54.466Z,98974.69
2023-03-28T10:08:21.264Z,98969.38
2023-03-28T10:12:38.238Z,98968.44
2023-03-28T10:16:41.646Z,98965.75
2023-03-28T10:20:48.754Z,98968.34
2023-03-28T10:24:51.482Z,98962.28
2023-03-28T10:28:57.441Z,98954.28
2023-03-28T10:33:20.964Z,98958.31
2023-03-28T10:37:42.257Z,98953.63
2023-03-28T10:42:05.691Z,98952.44
2023-03-28T10:46:36.172Z,98948.53
2023-03-28T10:51:08.592Z,98957.25
2023-03-28T10:55:19.913Z,98955.16
2023-03-28T10:59:49.721Z,98953.47
2023-03-28T11:04:08.071Z,98945.81
2023-03-28T11:08:32.812Z,98945.44
2023-03-28T11:13:07.818Z,98937.41
2023-03-28T11:17:46.201Z,98928.88
2023-03-28T11:21:58.925Z,98936.38
2023-03-28T11:26:14.601Z,98921.03
2023-03-28T11:30:59.844Z,98907.63
2023-03-28T11:35:17.736Z,98903.16
2023-03-28T11:39:29.918Z,98898.50
2023-03-28T11:43:46.596Z,98891.53
2023-03-28T11:47:55.243Z,98892.97
2023-03-28T11:52:17.422Z,98893.56
2023-03-28T11:56:28.082Z,98893.81
2023-03-28T12:00:46.262Z,98882.63
2023-03-28T12:05:26.041Z,98870.13
2023-03-28T12:09:40.604Z,98861.91
2023-03-28T12:14:11.126Z,98853.13
2023-03-28T12:19:01.432Z,98841.91
2023-03-28T12:23:24.490Z,98840.97
2023-03-28T12:28:04.159Z,98831.91
2023-03-28T12:32:25.989Z,98835.69
2023-03-28T12:36:36.613Z,98828.31
2023-03-28T12:40:47.166Z,98823.16
2023-03-28T12:45:06.646Z,98820.41
2023-03-28T12:49:14.029Z,98816.19
2023-03-28T12:53:17.157Z,98814.88
2023-03-28T12:57:43.752Z,98812.00
2023-03-28T13:01:56.935Z,98799.69
2023-03-28T13:06:14.347Z,98801.50
2023-03-28T13:10:42.606Z,98799.50
2023-03-28T13:14:58.737Z,98787.66
2023-03-28T13:19:10.046Z,98791.16
2023-03-28T13:23:14.914Z,98782.22
2023-03-28T13:27:32.675Z,98782.22
2023-03-28T13:31:34.910Z,98771.72
2023-03-28T13:35:47.325Z,98768.97
2023-03-28T13:39:59.601Z,98766.41
2023-03-28T13:44:14.599Z,98766.13
2023-03-28T13:48:17.328Z,98755.38
2023-03-28T13:52:23.021Z,98745.53
2023-03-28T13:56:29.119Z,98745.94
2023-03-28T14:00:32.094Z,98737.84
2023-03-28T14:04:34.943Z,98720.53
2023-03-28T14:08:37.046Z,98709.06
2023-03-28T14:12:39.322Z,98719.41
2023-03-28T14:16:43.945Z,98702.84
2023-03-28T14:20:46.786Z,98704.25
2023-03-28T14:24:54.453Z,98698.03
2023-03-28T14:29:25.881Z,98698.84
2023-03-28T14:33:37.034Z,98702.06
2023-03-28T14:37:47.420Z,98694.97
2023-03-28T14:41:49.472Z,98689.97
2023-03-28T14:45:54.111Z,98697.00
2023-03-28T14:49:56.587Z,98684.09
2023-03-28T14:53:58.693Z,98678.28
2023-03-28T14:58:02.231Z,98657.72
2023-03-28T15:02:05.694Z,98663.75
2023-03-28T15:06:13.994Z,98653.59
2023-03-28T15:10:19.638Z,98645.97
2023-03-28T15:14:36.048Z,98645.91
2023-03-28T15:18:47.008Z,98635.50
2023-03-28T15:22:52.511Z,98628.91
2023-03-28T15:27:01.699Z,98637.88
2023-03-28T15:31:04.240Z,98633.81
2023-03-28T15:35:23.523Z,98633.00
2023-03-28T15:39:31.951Z,98619.56
2023-03-28T15:44:00.287Z,98626.03
2023-03-28T15:48:02.353Z,98608.41
2023-03-28T15:52:23.354Z,98597.66
2023-03-28T15:56:29.050Z,98600.75
2023-03-28T16:00:34.674Z,98596.88
2023-03-28T16:04:36.758Z,98596.09
2023-03-28T16:08:47.494Z,98591.63
2023-03-28T16:12:52.869Z,98584.88
2023-03-28T16:17:13.934Z,98576.94
2023-03-28T16:21:27.059Z,98586.53
2023-03-28T16:25:29.394Z,98576.38
2023-03-28T16:29:31.700Z,98573.44
2023-03-28T16:33:33.818Z,98561.72
2023-03-28T16:37:35.850Z,98552.56
2023-03-28T16:41:37.984Z,98552.78
2023-03-28T16:45:40.331Z,98548.63
2023-03-28T16:49:42.329Z,98534.81
2023-03-28T16:53:44.375Z,98527.09
2023-03-28T16:57:46.565Z,98522.91
2023-03-28T17:01:48.979Z,98516.09
2023-03-28T17:05:51.068Z,98510.09
2023-03-28T17:09:53.098Z,98513.75
2023-03-28T17:13:55.289Z,98508.78
2023-03-28T17:17:58.119Z,98509.72
2023-03-28T17:22:00.940Z,98499.50
2023-03-28T17:26:03.762Z,98493.59
2023-03-28T17:30:07.045Z,98492.06
2023-03-28T17:34:09.779Z,98489.53
2023-03-28T17:38:11.960Z,98480.91
2023-03-28T17:42:13.992Z,98494.94
2023-03-28T17:46:16.348Z,98491.47
2023-03-28T17:50:18.474Z,98489.69
2023-03-28T17:54:20.530Z,98488.75
2023-03-28T17:58:23.362Z,98484.25
2023-03-28T18:02:25.638Z,98491.09
2023-03-28T18:06:40.531Z,98492.81
2023-03-28T18:10:43.389Z,98489.31
2023-03-28T18:14:45.827Z,98482.38
2023-03-28T18:18:47.976Z,98484.13
2023-03-28T18:22:50.208Z,98495.44
2023-03-28T18:26:52.264Z,98493.72
2023-03-28T18:30:54.341Z,98495.47
2023-03-28T18:34:56.456Z,98493.59
2023-03-28T18:38:58.716Z,98495.31
2023-03-28T18:43:01.310Z,98488.38
2023-03-28T18:47:05.176Z,98489.25
2023-03-28T18:51:07.781Z,98490.97
2023-03-28T18:55:12.012Z,98484.97
2023-03-28T18:59:14.148Z,98478.91
2023-03-28T19:03:17.225Z,98463.25
2023-03-28T19:07:19.657Z,98460.66
2023-03-28T19:11:22.517Z,98442.50
2023-03-28T19:15:25.170Z,98449.38
2023-03-28T19:19:27.549Z,98444.25
2023-03-28T19:23:29.710Z,98456.50
2023-03-28T19:27:32.285Z,98449.53
2023-03-28T19:31:34.317Z,98450.41
2023-03-28T19:35:36.416Z,98446.16
2023-03-28T19:39:38.439Z,98440.94
2023-03-28T19:43:40.805Z,98446.16
2023-03-28T19:47:42.863Z,98434.88
2023-03-28T19:51:44.978Z,98439.25
2023-03-28T19:55:58.766Z,98434.97
2023-03-28T20:00:01.735Z,98437.50
2023-03-28T20:04:04.363Z,98441.91
2023-03-28T20:08:06.586Z,98439.31
2023-03-28T20:12:08.599Z,98439.31
2023-03-28T20:16:12.538Z,98453.19
2023-03-28T20:20:15.245Z,98445.56
2023-03-28T20:24:18.122Z,98461.34
2023-03-28T20:28:24.553Z,98466.63
2023-03-28T20:32:27.140Z,98456.31
2023-03-28T20:36:32.645Z,98452.06
2023-03-28T20:40:35.052Z,98452.00
2023-03-28T20:44:41.864Z,98439.13
2023-03-28T20:48:46.344Z,98434.09
2023-03-28T20:52:48.821Z,98441.09
2023-03-28T20:56:51.439Z,98438.56
2023-03-28T21:00:58.114Z,98437.00
2023-03-28T21:05:02.173Z,98428.41
2023-03-28T21:09:07.733Z,98429.38
2023-03-28T21:13:09.867Z,98418.97
2023-03-28T21:17:21.929Z,98421.53
2023-03-28T21:21:25.028Z,98413.63
2023-03-28T21:25:27.574Z,98399.84
2023-03-28T21:29:30.095Z,98384.41
2023-03-28T21:33:32.275Z,98379.19
2023-03-28T21:37:34.359Z,98389.59
2023-03-28T21:41:38.034Z,98383.47
2023-03-28T21:45:42.879Z,98391.19
2023-03-28T21:49:45.935Z,98399.78
2023-03-28T21:53:48.110Z,98399.66
2023-03-28T21:57:50.299Z,98402.19
2023-03-28T22:01:54.020Z,98412.75
2023-03-28T22:05:56.327Z,98401.50
2023-03-28T22:10:01.265Z,98376.28
2023-03-28T22:14:04.854Z,98374.63
2023-03-28T22:18:09.240Z,98364.22
2023-03-28T22:22:11.529Z,98365.13
2023-03-28T22:26:13.672Z,98361.84
2023-03-28T22:30:15.763Z,98349.91
2023-03-28T22:34:20.755Z,98355.09
2023-03-28T22:38:22.886Z,98347.47
2023-03-28T22:42:25.540Z,98360.56
2023-03-28T22:46:28.939Z,98352.16
2023-03-28T22:50:33.580Z,98355.66
2023-03-28T22:54:37.008Z,98352.25
2023-03-28T22:58:39.034Z,98352.44
2023-03-28T23:02:41.561Z,98343.78
2023-03-28T23:06:44.710Z,98339.53
2023-03-28T23:10:47.329Z,98334.38
2023-03-28T23:14:49.388Z,98323.97
2023-03-28T23:18:51.371Z,98327.28
2023-03-28T23:22:56.324Z,98329.72
2023-03-28T23:26:58.508Z,98327.94
2023-03-28T23:31:01.249Z,98322.88
2023-03-28T23:35:04.062Z,98315.06
2023-03-28T23:39:06.432Z,98297.66
2023-03-28T23:43:08.909Z,98293.34
2023-03-28T23:47:12.454Z,98288.13
2023-03-28T23:51:15.184Z,98271.66
2023-03-28T23:55:17.389Z,98255.09
2023-03-28T23:59:19.388Z,98254.22
